sensor_id;sensor_type;location;lat;lon;timestamp;P1;durP1;ratioP1;P2;durP2;ratioP2
23406;SDS011;11876;53.438;18.942;2022-08-03T00:01:54;11.88;;;7.00;;
23406;SDS011;11876;53.438;18.942;2022-08-03T00:06:57;13.13;;;7.47;;
23406;SDS011;11876;53.438;18.942;2022-08-03T00:12:00;13.88;;;7.80;;
23406;SDS011;11876;53.438;18.942;2022-08-03T00:17:02;8.65;;;5.90;;
23406;SDS011;11876;53.438;18.942;2022-08-03T00:22:05;10.13;;;6.50;;
23406;SDS011;11876;53.438;18.942;2022-08-03T00:27:07;8.50;;;5.68;;
23406;SDS011;11876;53.438;18.942;2022-08-03T00:32:10;8.35;;;5.78;;
23406;SDS011;11876;53.438;18.942;2022-08-03T00:37:13;8.07;;;5.50;;
23406;SDS011;11876;53.438;18.942;2022-08-03T00:42:17;10.25;;;6.50;;
23406;SDS011;11876;53.438;18.942;2022-08-03T00:47:20;7.05;;;6.00;;
23406;SDS011;11876;53.438;18.942;2022-08-03T00:52:23;7.75;;;5.65;;
23406;SDS011;11876;53.438;18.942;2022-08-03T00:57:25;11.55;;;9.13;;
23406;SDS011;11876;53.438;18.942;2022-08-03T01:02:29;17.10;;;11.25;;
23406;SDS011;11876;53.438;18.942;2022-08-03T01:07:36;13.88;;;10.23;;
23406;SDS011;11876;53.438;18.942;2022-08-03T01:24:13;10.85;;;6.28;;
23406;SDS011;11876;53.438;18.942;2022-08-03T01:29:39;10.15;;;5.88;;
23406;SDS011;11876;53.438;18.942;2022-08-03T01:34:47;8.00;;;5.72;;
23406;SDS011;11876;53.438;18.942;2022-08-03T01:39:54;8.48;;;5.50;;
23406;SDS011;11876;53.438;18.942;2022-08-03T01:45:00;10.55;;;6.70;;
23406;SDS011;11876;53.438;18.942;2022-08-03T01:50:03;10.63;;;7.72;;
23406;SDS011;11876;53.438;18.942;2022-08-03T01:55:07;8.18;;;6.63;;
23406;SDS011;11876;53.438;18.942;2022-08-03T02:00:11;11.23;;;7.35;;
23406;SDS011;11876;53.438;18.942;2022-08-03T02:05:16;8.45;;;6.35;;
23406;SDS011;11876;53.438;18.942;2022-08-03T02:10:21;6.72;;;5.75;;
23406;SDS011;11876;53.438;18.942;2022-08-03T02:15:36;10.68;;;6.47;;
23406;SDS011;11876;53.438;18.942;2022-08-03T02:20:40;8.05;;;6.00;;
23406;SDS011;11876;53.438;18.942;2022-08-03T02:25:44;11.20;;;7.05;;
23406;SDS011;11876;53.438;18.942;2022-08-03T02:30:49;10.40;;;7.38;;
23406;SDS011;11876;53.438;18.942;2022-08-03T02:35:56;16.25;;;7.78;;
23406;SDS011;11876;53.438;18.942;2022-08-03T02:40:59;10.45;;;6.55;;
23406;SDS011;11876;53.438;18.942;2022-08-03T02:46:03;10.18;;;7.43;;
23406;SDS011;11876;53.438;18.942;2022-08-03T02:51:07;11.05;;;7.28;;
23406;SDS011;11876;53.438;18.942;2022-08-03T02:56:10;7.93;;;6.65;;
23406;SDS011;11876;53.438;18.942;2022-08-03T03:01:15;9.38;;;6.72;;
23406;SDS011;11876;53.438;18.942;2022-08-03T03:06:21;9.60;;;6.75;;
23406;SDS011;11876;53.438;18.942;2022-08-03T03:11:29;11.80;;;7.10;;
23406;SDS011;11876;53.438;18.942;2022-08-03T03:16:33;9.15;;;6.55;;
23406;SDS011;11876;53.438;18.942;2022-08-03T03:21:37;9.82;;;7.20;;
23406;SDS011;11876;53.438;18.942;2022-08-03T03:26:41;9.60;;;6.15;;
23406;SDS011;11876;53.438;18.942;2022-08-03T03:31:44;10.80;;;6.80;;
23406;SDS011;11876;53.438;18.942;2022-08-03T03:36:47;9.80;;;6.22;;
23406;SDS011;11876;53.438;18.942;2022-08-03T03:41:50;7.38;;;6.30;;
23406;SDS011;11876;53.438;18.942;2022-08-03T03:46:54;8.93;;;6.53;;
23406;SDS011;11876;53.438;18.942;2022-08-03T03:52:01;10.82;;;5.55;;
23406;SDS011;11876;53.438;18.942;2022-08-03T03:57:04;10.43;;;5.97;;
23406;SDS011;11876;53.438;18.942;2022-08-03T04:02:10;11.63;;;5.97;;
23406;SDS011;11876;53.438;18.942;2022-08-03T04:07:13;10.60;;;5.88;;
23406;SDS011;11876;53.438;18.942;2022-08-03T04:12:35;9.93;;;6.32;;
23406;SDS011;11876;53.438;18.942;2022-08-03T04:17:50;11.27;;;5.88;;
23406;SDS011;11876;53.438;18.942;2022-08-03T04:22:55;10.95;;;6.28;;
23406;SDS011;11876;53.438;18.942;2022-08-03T04:28:01;9.07;;;5.68;;
23406;SDS011;11876;53.438;18.942;2022-08-03T04:33:24;8.50;;;5.60;;
23406;SDS011;11876;53.438;18.942;2022-08-03T04:38:31;7.67;;;5.43;;
23406;SDS011;11876;53.438;18.942;2022-08-03T04:43:38;10.07;;;5.50;;
23406;SDS011;11876;53.438;18.942;2022-08-03T04:48:42;8.05;;;5.32;;
23406;SDS011;11876;53.438;18.942;2022-08-03T04:53:46;11.15;;;5.57;;
23406;SDS011;11876;53.438;18.942;2022-08-03T04:58:49;6.80;;;5.82;;
23406;SDS011;11876;53.438;18.942;2022-08-03T05:03:52;9.73;;;5.93;;
23406;SDS011;11876;53.438;18.942;2022-08-03T05:08:56;10.30;;;5.70;;
23406;SDS011;11876;53.438;18.942;2022-08-03T05:13:59;13.45;;;5.65;;
23406;SDS011;11876;53.438;18.942;2022-08-03T05:19:02;20.30;;;5.88;;
23406;SDS011;11876;53.438;18.942;2022-08-03T05:24:05;6.63;;;5.15;;
23406;SDS011;11876;53.438;18.942;2022-08-03T05:29:10;7.80;;;4.68;;
23406;SDS011;11876;53.438;18.942;2022-08-03T05:34:13;6.20;;;4.22;;
23406;SDS011;11876;53.438;18.942;2022-08-03T05:39:16;8.95;;;4.47;;
23406;SDS011;11876;53.438;18.942;2022-08-03T05:44:19;6.10;;;3.88;;
23406;SDS011;11876;53.438;18.942;2022-08-03T05:49:22;5.40;;;4.03;;
23406;SDS011;11876;53.438;18.942;2022-08-03T05:54:25;6.22;;;4.35;;
23406;SDS011;11876;53.438;18.942;2022-08-03T05:59:48;9.15;;;4.43;;
23406;SDS011;11876;53.438;18.942;2022-08-03T06:04:58;6.97;;;3.60;;
23406;SDS011;11876;53.438;18.942;2022-08-03T06:10:03;10.45;;;3.80;;
23406;SDS011;11876;53.438;18.942;2022-08-03T06:15:27;5.97;;;4.05;;
23406;SDS011;11876;53.438;18.942;2022-08-03T06:20:31;6.55;;;3.90;;
23406;SDS011;11876;53.438;18.942;2022-08-03T06:25:35;7.47;;;4.65;;
23406;SDS011;11876;53.438;18.942;2022-08-03T06:30:40;6.88;;;3.88;;
23406;SDS011;11876;53.438;18.942;2022-08-03T06:35:43;8.05;;;4.25;;
23406;SDS011;11876;53.438;18.942;2022-08-03T06:40:46;5.70;;;3.83;;
23406;SDS011;11876;53.438;18.942;2022-08-03T06:45:51;8.32;;;4.28;;
23406;SDS011;11876;53.438;18.942;2022-08-03T06:50:54;4.60;;;3.92;;
23406;SDS011;11876;53.438;18.942;2022-08-03T06:55:57;4.43;;;3.88;;
23406;SDS011;11876;53.438;18.942;2022-08-03T07:01:02;5.80;;;4.10;;
23406;SDS011;11876;53.438;18.942;2022-08-03T07:06:05;8.05;;;5.03;;
23406;SDS011;11876;53.438;18.942;2022-08-03T07:11:08;5.18;;;3.90;;
23406;SDS011;11876;53.438;18.942;2022-08-03T07:16:11;6.03;;;4.15;;
23406;SDS011;11876;53.438;18.942;2022-08-03T07:21:14;10.00;;;5.05;;
23406;SDS011;11876;53.438;18.942;2022-08-03T07:26:17;6.97;;;3.78;;
23406;SDS011;11876;53.438;18.942;2022-08-03T07:31:20;8.88;;;4.10;;
23406;SDS011;11876;53.438;18.942;2022-08-03T07:36:22;6.63;;;3.15;;
23406;SDS011;11876;53.438;18.942;2022-08-03T07:44:06;4.03;;;3.20;;
23406;SDS011;11876;53.438;18.942;2022-08-03T07:49:14;3.70;;;2.25;;
23406;SDS011;11876;53.438;18.942;2022-08-03T07:54:21;4.97;;;2.88;;
23406;SDS011;11876;53.438;18.942;2022-08-03T07:59:27;4.75;;;2.35;;
23406;SDS011;11876;53.438;18.942;2022-08-03T08:04:51;6.28;;;2.17;;
23406;SDS011;11876;53.438;18.942;2022-08-03T08:09:56;5.47;;;2.22;;
23406;SDS011;11876;53.438;18.942;2022-08-03T08:15:02;4.00;;;2.10;;
23406;SDS011;11876;53.438;18.942;2022-08-03T08:20:06;3.70;;;2.53;;
23406;SDS011;11876;53.438;18.942;2022-08-03T08:25:10;5.22;;;2.20;;
23406;SDS011;11876;53.438;18.942;2022-08-03T08:30:14;3.40;;;2.00;;
23406;SDS011;11876;53.438;18.942;2022-08-03T08:35:20;3.93;;;1.73;;
23406;SDS011;11876;53.438;18.942;2022-08-03T08:40:22;6.47;;;1.98;;
23406;SDS011;11876;53.438;18.942;2022-08-03T08:45:25;3.42;;;2.20;;
23406;SDS011;11876;53.438;18.942;2022-08-03T08:50:32;2.90;;;1.52;;
23406;SDS011;11876;53.438;18.942;2022-08-03T08:55:36;5.13;;;1.60;;
23406;SDS011;11876;53.438;18.942;2022-08-03T09:01:00;2.38;;;1.50;;
23406;SDS011;11876;53.438;18.942;2022-08-03T09:06:03;4.20;;;1.67;;
23406;SDS011;11876;53.438;18.942;2022-08-03T09:11:06;5.65;;;1.83;;
23406;SDS011;11876;53.438;18.942;2022-08-03T09:16:13;4.60;;;1.95;;
23406;SDS011;11876;53.438;18.942;2022-08-03T09:26:35;3.30;;;1.90;;
23406;SDS011;11876;53.438;18.942;2022-08-03T09:31:40;4.90;;;1.50;;
23406;SDS011;11876;53.438;18.942;2022-08-03T09:42:04;2.78;;;1.58;;
23406;SDS011;11876;53.438;18.942;2022-08-03T09:47:12;5.57;;;1.77;;
23406;SDS011;11876;53.438;18.942;2022-08-03T09:52:16;3.97;;;2.10;;
23406;SDS011;11876;53.438;18.942;2022-08-03T09:57:42;3.33;;;1.70;;
23406;SDS011;11876;53.438;18.942;2022-08-03T10:02:47;1.85;;;1.58;;
23406;SDS011;11876;53.438;18.942;2022-08-03T10:07:51;2.40;;;1.42;;
23406;SDS011;11876;53.438;18.942;2022-08-03T10:12:54;4.35;;;1.42;;
23406;SDS011;11876;53.438;18.942;2022-08-03T10:17:57;3.55;;;1.55;;
23406;SDS011;11876;53.438;18.942;2022-08-03T10:23:00;11.60;;;2.05;;
23406;SDS011;11876;53.438;18.942;2022-08-03T10:28:03;2.42;;;1.50;;
23406;SDS011;11876;53.438;18.942;2022-08-03T10:33:09;1.63;;;1.42;;
23406;SDS011;11876;53.438;18.942;2022-08-03T10:38:42;5.63;;;1.70;;
23406;SDS011;11876;53.438;18.942;2022-08-03T10:48:59;2.83;;;1.60;;
23406;SDS011;11876;53.438;18.942;2022-08-03T10:54:02;2.55;;;1.88;;
23406;SDS011;11876;53.438;18.942;2022-08-03T10:59:05;4.40;;;1.85;;
23406;SDS011;11876;53.438;18.942;2022-08-03T11:04:13;3.33;;;1.63;;
23406;SDS011;11876;53.438;18.942;2022-08-03T11:09:17;7.50;;;1.95;;
23406;SDS011;11876;53.438;18.942;2022-08-03T11:14:21;1.13;;;1.10;;
23406;SDS011;11876;53.438;18.942;2022-08-03T11:19:24;6.28;;;1.75;;
23406;SDS011;11876;53.438;18.942;2022-08-03T11:24:58;3.55;;;1.80;;
23406;SDS011;11876;53.438;18.942;2022-08-03T11:46:02;3.42;;;1.60;;
23406;SDS011;11876;53.438;18.942;2022-08-03T11:51:30;4.10;;;1.25;;
23406;SDS011;11876;53.438;18.942;2022-08-03T12:01:48;2.53;;;1.23;;
23406;SDS011;11876;53.438;18.942;2022-08-03T12:06:58;4.43;;;1.63;;
23406;SDS011;11876;53.438;18.942;2022-08-03T12:12:02;80.13;;;11.65;;
23406;SDS011;11876;53.438;18.942;2022-08-03T12:17:04;2.60;;;1.25;;
23406;SDS011;11876;53.438;18.942;2022-08-03T12:22:08;4.15;;;1.88;;
23406;SDS011;11876;53.438;18.942;2022-08-03T12:27:12;6.38;;;1.42;;
23406;SDS011;11876;53.438;18.942;2022-08-03T12:32:25;3.08;;;1.25;;
23406;SDS011;11876;53.438;18.942;2022-08-03T12:37:31;4.00;;;1.42;;
23406;SDS011;11876;53.438;18.942;2022-08-03T12:42:36;3.80;;;1.63;;
23406;SDS011;11876;53.438;18.942;2022-08-03T12:47:53;3.65;;;1.58;;
23406;SDS011;11876;53.438;18.942;2022-08-03T12:52:58;3.45;;;1.33;;
23406;SDS011;11876;53.438;18.942;2022-08-03T12:58:03;3.95;;;1.40;;
23406;SDS011;11876;53.438;18.942;2022-08-03T13:03:17;2.45;;;1.50;;
23406;SDS011;11876;53.438;18.942;2022-08-03T13:08:41;2.67;;;1.30;;
23406;SDS011;11876;53.438;18.942;2022-08-03T13:13:45;3.35;;;1.40;;
23406;SDS011;11876;53.438;18.942;2022-08-03T13:18:48;1.23;;;1.13;;
23406;SDS011;11876;53.438;18.942;2022-08-03T13:23:52;2.05;;;1.08;;
23406;SDS011;11876;53.438;18.942;2022-08-03T13:28:55;2.10;;;1.55;;
23406;SDS011;11876;53.438;18.942;2022-08-03T13:33:57;2.92;;;1.55;;
23406;SDS011;11876;53.438;18.942;2022-08-03T13:39:00;1.95;;;1.60;;
23406;SDS011;11876;53.438;18.942;2022-08-03T13:44:03;1.90;;;1.35;;
23406;SDS011;11876;53.438;18.942;2022-08-03T13:49:27;2.88;;;1.52;;
23406;SDS011;11876;53.438;18.942;2022-08-03T13:54:30;6.97;;;1.85;;
23406;SDS011;11876;53.438;18.942;2022-08-03T13:59:34;2.08;;;1.30;;
23406;SDS011;11876;53.438;18.942;2022-08-03T14:04:38;4.88;;;1.25;;
23406;SDS011;11876;53.438;18.942;2022-08-03T14:09:42;2.50;;;1.50;;
23406;SDS011;11876;53.438;18.942;2022-08-03T14:14:45;2.63;;;1.50;;
23406;SDS011;11876;53.438;18.942;2022-08-03T14:19:48;6.07;;;1.42;;
23406;SDS011;11876;53.438;18.942;2022-08-03T14:24:54;3.87;;;1.70;;
23406;SDS011;11876;53.438;18.942;2022-08-03T14:29:59;2.97;;;1.67;;
23406;SDS011;11876;53.438;18.942;2022-08-03T14:35:03;2.42;;;1.48;;
23406;SDS011;11876;53.438;18.942;2022-08-03T14:40:06;4.55;;;1.67;;
23406;SDS011;11876;53.438;18.942;2022-08-03T14:45:09;2.20;;;1.35;;
23406;SDS011;11876;53.438;18.942;2022-08-03T14:50:21;2.10;;;1.17;;
23406;SDS011;11876;53.438;18.942;2022-08-03T14:55:43;2.42;;;1.40;;
23406;SDS011;11876;53.438;18.942;2022-08-03T15:00:52;3.47;;;1.48;;
23406;SDS011;11876;53.438;18.942;2022-08-03T15:05:57;3.17;;;1.30;;
23406;SDS011;11876;53.438;18.942;2022-08-03T15:10:59;1.48;;;1.30;;
23406;SDS011;11876;53.438;18.942;2022-08-03T15:16:05;2.05;;;1.33;;
23406;SDS011;11876;53.438;18.942;2022-08-03T15:21:09;2.47;;;1.35;;
23406;SDS011;11876;53.438;18.942;2022-08-03T15:26:32;6.18;;;1.88;;
23406;SDS011;11876;53.438;18.942;2022-08-03T15:31:41;6.75;;;1.70;;
23406;SDS011;11876;53.438;18.942;2022-08-03T15:36:45;2.50;;;1.65;;
23406;SDS011;11876;53.438;18.942;2022-08-03T15:41:48;1.92;;;1.40;;
23406;SDS011;11876;53.438;18.942;2022-08-03T15:46:51;2.17;;;1.52;;
23406;SDS011;11876;53.438;18.942;2022-08-03T15:51:54;3.88;;;1.33;;
23406;SDS011;11876;53.438;18.942;2022-08-03T15:56:56;6.30;;;1.67;;
23406;SDS011;11876;53.438;18.942;2022-08-03T16:01:59;1.58;;;1.48;;
23406;SDS011;11876;53.438;18.942;2022-08-03T16:07:02;3.13;;;1.63;;
23406;SDS011;11876;53.438;18.942;2022-08-03T16:12:05;3.88;;;1.45;;
23406;SDS011;11876;53.438;18.942;2022-08-03T16:17:16;4.28;;;1.58;;
23406;SDS011;11876;53.438;18.942;2022-08-03T16:22:19;2.00;;;1.40;;
23406;SDS011;11876;53.438;18.942;2022-08-03T16:27:23;3.55;;;1.50;;
23406;SDS011;11876;53.438;18.942;2022-08-03T16:32:47;1.98;;;1.30;;
23406;SDS011;11876;53.438;18.942;2022-08-03T16:37:49;4.85;;;1.55;;
23406;SDS011;11876;53.438;18.942;2022-08-03T16:42:57;3.38;;;1.77;;
23406;SDS011;11876;53.438;18.942;2022-08-03T16:48:00;6.22;;;1.60;;
23406;SDS011;11876;53.438;18.942;2022-08-03T16:53:07;3.88;;;1.38;;
23406;SDS011;11876;53.438;18.942;2022-08-03T16:58:10;3.38;;;1.70;;
23406;SDS011;11876;53.438;18.942;2022-08-03T17:03:14;6.25;;;2.00;;
23406;SDS011;11876;53.438;18.942;2022-08-03T17:08:25;1.63;;;1.27;;
23406;SDS011;11876;53.438;18.942;2022-08-03T17:13:28;6.00;;;2.17;;
23406;SDS011;11876;53.438;18.942;2022-08-03T17:18:46;2.65;;;1.33;;
23406;SDS011;11876;53.438;18.942;2022-08-03T17:24:00;6.07;;;2.00;;
23406;SDS011;11876;53.438;18.942;2022-08-03T17:29:15;6.20;;;1.90;;
23406;SDS011;11876;53.438;18.942;2022-08-03T17:34:23;2.42;;;1.60;;
23406;SDS011;11876;53.438;18.942;2022-08-03T17:39:27;4.82;;;2.33;;
23406;SDS011;11876;53.438;18.942;2022-08-03T17:44:50;9.73;;;1.95;;
23406;SDS011;11876;53.438;18.942;2022-08-03T17:49:57;6.20;;;2.40;;
23406;SDS011;11876;53.438;18.942;2022-08-03T17:55:20;6.68;;;2.28;;
23406;SDS011;11876;53.438;18.942;2022-08-03T18:00:44;6.28;;;2.08;;
23406;SDS011;11876;53.438;18.942;2022-08-03T18:06:31;6.45;;;3.42;;
23406;SDS011;11876;53.438;18.942;2022-08-03T18:11:56;6.38;;;2.33;;
23406;SDS011;11876;53.438;18.942;2022-08-03T18:17:04;11.05;;;2.20;;
23406;SDS011;11876;53.438;18.942;2022-08-03T18:22:11;3.72;;;2.10;;
23406;SDS011;11876;53.438;18.942;2022-08-03T18:27:15;2.85;;;2.10;;
23406;SDS011;11876;53.438;18.942;2022-08-03T18:32:20;6.88;;;2.00;;
23406;SDS011;11876;53.438;18.942;2022-08-03T18:37:28;9.70;;;2.22;;
23406;SDS011;11876;53.438;18.942;2022-08-03T18:42:52;8.55;;;2.30;;
23406;SDS011;11876;53.438;18.942;2022-08-03T18:47:56;9.15;;;2.50;;
23406;SDS011;11876;53.438;18.942;2022-08-03T18:53:23;9.50;;;2.42;;
23406;SDS011;11876;53.438;18.942;2022-08-03T18:58:55;7.20;;;2.50;;
23406;SDS011;11876;53.438;18.942;2022-08-03T19:04:13;13.65;;;2.95;;
23406;SDS011;11876;53.438;18.942;2022-08-03T19:09:44;7.47;;;3.17;;
23406;SDS011;11876;53.438;18.942;2022-08-03T19:14:51;6.65;;;2.70;;
23406;SDS011;11876;53.438;18.942;2022-08-03T19:19:57;7.80;;;3.60;;
23406;SDS011;11876;53.438;18.942;2022-08-03T19:25:02;6.88;;;3.63;;
23406;SDS011;11876;53.438;18.942;2022-08-03T19:30:12;11.35;;;4.53;;
23406;SDS011;11876;53.438;18.942;2022-08-03T19:35:42;8.80;;;3.50;;
23406;SDS011;11876;53.438;18.942;2022-08-03T19:40:59;12.05;;;3.15;;
23406;SDS011;11876;53.438;18.942;2022-08-03T19:46:05;7.35;;;3.20;;
23406;SDS011;11876;53.438;18.942;2022-08-03T19:51:14;13.10;;;3.10;;
23406;SDS011;11876;53.438;18.942;2022-08-03T19:56:19;6.95;;;2.90;;
23406;SDS011;11876;53.438;18.942;2022-08-03T20:01:25;7.07;;;2.88;;
23406;SDS011;11876;53.438;18.942;2022-08-03T20:06:28;6.38;;;3.08;;
23406;SDS011;11876;53.438;18.942;2022-08-03T20:11:31;5.13;;;3.17;;
23406;SDS011;11876;53.438;18.942;2022-08-03T20:16:46;5.72;;;3.00;;
23406;SDS011;11876;53.438;18.942;2022-08-03T20:21:50;5.78;;;2.65;;
23406;SDS011;11876;53.438;18.942;2022-08-03T20:26:55;4.57;;;2.78;;
23406;SDS011;11876;53.438;18.942;2022-08-03T20:31:58;9.75;;;2.75;;
23406;SDS011;11876;53.438;18.942;2022-08-03T20:37:02;8.55;;;3.83;;
23406;SDS011;11876;53.438;18.942;2022-08-03T20:42:09;4.28;;;3.08;;
23406;SDS011;11876;53.438;18.942;2022-08-03T20:47:13;9.13;;;3.42;;
23406;SDS011;11876;53.438;18.942;2022-08-03T20:52:24;4.07;;;2.95;;
23406;SDS011;11876;53.438;18.942;2022-08-03T20:57:27;5.97;;;3.30;;
23406;SDS011;11876;53.438;18.942;2022-08-03T21:02:33;9.77;;;3.13;;
23406;SDS011;11876;53.438;18.942;2022-08-03T21:07:40;5.50;;;3.40;;
23406;SDS011;11876;53.438;18.942;2022-08-03T21:13:09;5.18;;;3.10;;
23406;SDS011;11876;53.438;18.942;2022-08-03T21:18:20;4.60;;;2.88;;
23406;SDS011;11876;53.438;18.942;2022-08-03T21:23:24;5.43;;;2.80;;
23406;SDS011;11876;53.438;18.942;2022-08-03T21:28:49;6.72;;;2.88;;
23406;SDS011;11876;53.438;18.942;2022-08-03T21:33:53;5.43;;;3.05;;
23406;SDS011;11876;53.438;18.942;2022-08-03T21:38:57;4.80;;;3.40;;
23406;SDS011;11876;53.438;18.942;2022-08-03T21:44:00;6.82;;;3.45;;
23406;SDS011;11876;53.438;18.942;2022-08-03T21:49:04;4.30;;;3.08;;
23406;SDS011;11876;53.438;18.942;2022-08-03T21:54:33;7.82;;;3.30;;
23406;SDS011;11876;53.438;18.942;2022-08-03T21:59:38;4.40;;;3.15;;
23406;SDS011;11876;53.438;18.942;2022-08-03T22:04:44;5.65;;;3.53;;
23406;SDS011;11876;53.438;18.942;2022-08-03T22:09:57;4.60;;;3.08;;
23406;SDS011;11876;53.438;18.942;2022-08-03T22:15:04;6.55;;;3.08;;
23406;SDS011;11876;53.438;18.942;2022-08-03T22:20:10;6.80;;;3.53;;
23406;SDS011;11876;53.438;18.942;2022-08-03T22:25:15;5.60;;;3.08;;
23406;SDS011;11876;53.438;18.942;2022-08-03T22:30:21;5.87;;;3.37;;
23406;SDS011;11876;53.438;18.942;2022-08-03T22:35:25;4.75;;;3.30;;
23406;SDS011;11876;53.438;18.942;2022-08-03T22:40:28;7.30;;;3.17;;
23406;SDS011;11876;53.438;18.942;2022-08-03T22:45:31;8.23;;;3.50;;
23406;SDS011;11876;53.438;18.942;2022-08-03T22:50:54;4.20;;;3.42;;
23406;SDS011;11876;53.438;18.942;2022-08-03T22:55:58;5.30;;;3.22;;
23406;SDS011;11876;53.438;18.942;2022-08-03T23:01:02;6.80;;;4.15;;
23406;SDS011;11876;53.438;18.942;2022-08-03T23:06:12;6.30;;;3.90;;
23406;SDS011;11876;53.438;18.942;2022-08-03T23:11:16;7.35;;;3.83;;
23406;SDS011;11876;53.438;18.942;2022-08-03T23:16:24;4.40;;;3.47;;
23406;SDS011;11876;53.438;18.942;2022-08-03T23:21:30;8.13;;;4.35;;
23406;SDS011;11876;53.438;18.942;2022-08-03T23:26:53;8.25;;;4.63;;
23406;SDS011;11876;53.438;18.942;2022-08-03T23:31:57;5.30;;;4.80;;
23406;SDS011;11876;53.438;18.942;2022-08-03T23:37:05;7.50;;;6.18;;
23406;SDS011;11876;53.438;18.942;2022-08-03T23:42:08;9.00;;;5.43;;
23406;SDS011;11876;53.438;18.942;2022-08-03T23:47:11;9.55;;;6.13;;
23406;SDS011;11876;53.438;18.942;2022-08-03T23:58:18;9.07;;;6.05;;
